sensor_id;sensor_type;location;lat;lon;timestamp;P1;durP1;ratioP1;P2;durP2;ratioP2
22131;SDS011;11232;51.748;19.390;2022-12-18T00:01:32;69.43;;;22.33;;
22131;SDS011;11232;51.748;19.390;2022-12-18T00:03:59;69.03;;;21.97;;
22131;SDS011;11232;51.748;19.390;2022-12-18T00:06:26;60.47;;;20.33;;
22131;SDS011;11232;51.748;19.390;2022-12-18T00:08:54;56.43;;;20.37;;
22131;SDS011;11232;51.748;19.390;2022-12-18T00:11:22;62.27;;;19.90;;
22131;SDS011;11232;51.748;19.390;2022-12-18T00:13:50;58.30;;;19.60;;
22131;SDS011;11232;51.748;19.390;2022-12-18T00:16:18;54.87;;;18.37;;
22131;SDS011;11232;51.748;19.390;2022-12-18T00:18:46;52.53;;;17.73;;
22131;SDS011;11232;51.748;19.390;2022-12-18T00:21:12;54.83;;;20.00;;
22131;SDS011;11232;51.748;19.390;2022-12-18T00:23:39;55.60;;;19.63;;
22131;SDS011;11232;51.748;19.390;2022-12-18T00:26:07;52.43;;;19.13;;
22131;SDS011;11232;51.748;19.390;2022-12-18T00:28:36;55.43;;;19.23;;
22131;SDS011;11232;51.748;19.390;2022-12-18T00:31:06;55.07;;;19.47;;
22131;SDS011;11232;51.748;19.390;2022-12-18T00:33:34;59.07;;;19.17;;
22131;SDS011;11232;51.748;19.390;2022-12-18T00:36:04;68.30;;;21.50;;
22131;SDS011;11232;51.748;19.390;2022-12-18T00:38:31;60.27;;;19.90;;
22131;SDS011;11232;51.748;19.390;2022-12-18T00:40:58;59.27;;;21.03;;
22131;SDS011;11232;51.748;19.390;2022-12-18T00:43:23;61.97;;;19.83;;
22131;SDS011;11232;51.748;19.390;2022-12-18T00:45:49;58.60;;;21.33;;
22131;SDS011;11232;51.748;19.390;2022-12-18T00:48:15;61.00;;;20.67;;
22131;SDS011;11232;51.748;19.390;2022-12-18T00:50:40;62.30;;;20.63;;
22131;SDS011;11232;51.748;19.390;2022-12-18T00:53:06;64.33;;;20.83;;
22131;SDS011;11232;51.748;19.390;2022-12-18T00:55:34;52.53;;;18.80;;
22131;SDS011;11232;51.748;19.390;2022-12-18T00:58:02;57.63;;;19.40;;
22131;SDS011;11232;51.748;19.390;2022-12-18T01:00:27;49.20;;;16.87;;
22131;SDS011;11232;51.748;19.390;2022-12-18T01:02:53;48.40;;;18.80;;
22131;SDS011;11232;51.748;19.390;2022-12-18T01:05:18;50.50;;;19.07;;
22131;SDS011;11232;51.748;19.390;2022-12-18T01:07:44;52.60;;;18.30;;
22131;SDS011;11232;51.748;19.390;2022-12-18T01:10:10;50.20;;;16.50;;
22131;SDS011;11232;51.748;19.390;2022-12-18T01:12:37;49.63;;;18.67;;
22131;SDS011;11232;51.748;19.390;2022-12-18T01:15:03;51.13;;;17.67;;
22131;SDS011;11232;51.748;19.390;2022-12-18T01:17:30;57.03;;;19.70;;
22131;SDS011;11232;51.748;19.390;2022-12-18T01:19:55;49.50;;;18.93;;
22131;SDS011;11232;51.748;19.390;2022-12-18T01:22:21;60.27;;;19.17;;
22131;SDS011;11232;51.748;19.390;2022-12-18T01:24:46;48.77;;;18.10;;
22131;SDS011;11232;51.748;19.390;2022-12-18T01:27:12;51.87;;;17.07;;
22131;SDS011;11232;51.748;19.390;2022-12-18T01:29:38;54.47;;;16.70;;
22131;SDS011;11232;51.748;19.390;2022-12-18T01:32:04;52.73;;;17.83;;
22131;SDS011;11232;51.748;19.390;2022-12-18T01:34:29;51.57;;;18.47;;
22131;SDS011;11232;51.748;19.390;2022-12-18T01:36:55;50.87;;;18.23;;
22131;SDS011;11232;51.748;19.390;2022-12-18T01:39:20;51.90;;;18.53;;
22131;SDS011;11232;51.748;19.390;2022-12-18T01:41:46;44.97;;;16.10;;
22131;SDS011;11232;51.748;19.390;2022-12-18T01:47:18;53.93;;;17.00;;
22131;SDS011;11232;51.748;19.390;2022-12-18T01:49:48;43.77;;;16.87;;
22131;SDS011;11232;51.748;19.390;2022-12-18T01:52:14;55.97;;;19.00;;
22131;SDS011;11232;51.748;19.390;2022-12-18T01:54:41;49.07;;;18.30;;
22131;SDS011;11232;51.748;19.390;2022-12-18T01:57:07;52.50;;;17.70;;
22131;SDS011;11232;51.748;19.390;2022-12-18T01:59:33;53.90;;;18.00;;
22131;SDS011;11232;51.748;19.390;2022-12-18T02:02:02;55.13;;;19.27;;
22131;SDS011;11232;51.748;19.390;2022-12-18T02:04:28;51.43;;;18.80;;
22131;SDS011;11232;51.748;19.390;2022-12-18T02:07:03;53.27;;;18.50;;
22131;SDS011;11232;51.748;19.390;2022-12-18T02:09:54;46.03;;;17.50;;
22131;SDS011;11232;51.748;19.390;2022-12-18T02:15:15;54.83;;;19.30;;
22131;SDS011;11232;51.748;19.390;2022-12-18T02:17:58;47.27;;;17.23;;
22131;SDS011;11232;51.748;19.390;2022-12-18T02:20:40;46.70;;;17.03;;
22131;SDS011;11232;51.748;19.390;2022-12-18T02:23:16;43.03;;;17.10;;
22131;SDS011;11232;51.748;19.390;2022-12-18T02:28:38;45.77;;;16.37;;
22131;SDS011;11232;51.748;19.390;2022-12-18T02:31:27;48.67;;;17.57;;
22131;SDS011;11232;51.748;19.390;2022-12-18T02:33:56;50.30;;;16.73;;
22131;SDS011;11232;51.748;19.390;2022-12-18T02:36:27;50.23;;;17.17;;
22131;SDS011;11232;51.748;19.390;2022-12-18T02:38:54;53.17;;;18.10;;
22131;SDS011;11232;51.748;19.390;2022-12-18T02:41:21;52.57;;;17.63;;
22131;SDS011;11232;51.748;19.390;2022-12-18T02:43:48;53.33;;;19.83;;
22131;SDS011;11232;51.748;19.390;2022-12-18T02:49:14;46.63;;;17.83;;
22131;SDS011;11232;51.748;19.390;2022-12-18T02:52:00;51.37;;;17.70;;
22131;SDS011;11232;51.748;19.390;2022-12-18T03:07:55;48.67;;;17.30;;
22131;SDS011;11232;51.748;19.390;2022-12-18T03:10:25;47.10;;;18.03;;
22131;SDS011;11232;51.748;19.390;2022-12-18T03:13:02;56.17;;;18.73;;
22131;SDS011;11232;51.748;19.390;2022-12-18T03:15:47;58.60;;;18.70;;
22131;SDS011;11232;51.748;19.390;2022-12-18T03:18:20;55.57;;;18.53;;
22131;SDS011;11232;51.748;19.390;2022-12-18T03:20:53;56.40;;;18.87;;
22131;SDS011;11232;51.748;19.390;2022-12-18T03:23:25;58.03;;;17.47;;
22131;SDS011;11232;51.748;19.390;2022-12-18T03:25:56;53.00;;;19.67;;
22131;SDS011;11232;51.748;19.390;2022-12-18T03:28:24;48.27;;;19.83;;
22131;SDS011;11232;51.748;19.390;2022-12-18T03:30:56;56.73;;;18.07;;
22131;SDS011;11232;51.748;19.390;2022-12-18T03:33:34;47.20;;;16.83;;
22131;SDS011;11232;51.748;19.390;2022-12-18T03:36:05;50.93;;;16.80;;
22131;SDS011;11232;51.748;19.390;2022-12-18T03:38:31;59.33;;;18.57;;
22131;SDS011;11232;51.748;19.390;2022-12-18T03:41:19;57.37;;;19.40;;
22131;SDS011;11232;51.748;19.390;2022-12-18T03:49:33;45.90;;;17.97;;
22131;SDS011;11232;51.748;19.390;2022-12-18T03:52:23;48.93;;;18.87;;
22131;SDS011;11232;51.748;19.390;2022-12-18T03:55:03;57.57;;;19.80;;
22131;SDS011;11232;51.748;19.390;2022-12-18T03:57:32;57.33;;;21.17;;
22131;SDS011;11232;51.748;19.390;2022-12-18T04:00:03;61.37;;;19.30;;
22131;SDS011;11232;51.748;19.390;2022-12-18T04:02:34;52.77;;;17.43;;
22131;SDS011;11232;51.748;19.390;2022-12-18T04:05:03;63.80;;;19.37;;
22131;SDS011;11232;51.748;19.390;2022-12-18T04:07:30;52.40;;;17.57;;
22131;SDS011;11232;51.748;19.390;2022-12-18T04:09:57;53.80;;;18.20;;
22131;SDS011;11232;51.748;19.390;2022-12-18T04:12:25;55.43;;;18.63;;
22131;SDS011;11232;51.748;19.390;2022-12-18T04:14:51;49.33;;;16.67;;
22131;SDS011;11232;51.748;19.390;2022-12-18T04:17:17;51.63;;;20.50;;
22131;SDS011;11232;51.748;19.390;2022-12-18T04:19:43;57.63;;;20.93;;
22131;SDS011;11232;51.748;19.390;2022-12-18T04:22:09;59.47;;;19.80;;
22131;SDS011;11232;51.748;19.390;2022-12-18T04:24:35;61.90;;;19.63;;
22131;SDS011;11232;51.748;19.390;2022-12-18T04:27:01;63.20;;;20.27;;
22131;SDS011;11232;51.748;19.390;2022-12-18T04:29:26;66.60;;;22.10;;
22131;SDS011;11232;51.748;19.390;2022-12-18T04:31:52;63.93;;;21.67;;
22131;SDS011;11232;51.748;19.390;2022-12-18T04:34:17;56.40;;;21.37;;
22131;SDS011;11232;51.748;19.390;2022-12-18T04:36:43;61.03;;;22.03;;
22131;SDS011;11232;51.748;19.390;2022-12-18T04:39:09;69.23;;;23.03;;
22131;SDS011;11232;51.748;19.390;2022-12-18T04:41:34;61.93;;;21.47;;
22131;SDS011;11232;51.748;19.390;2022-12-18T04:44:00;68.80;;;23.77;;
22131;SDS011;11232;51.748;19.390;2022-12-18T04:46:25;65.37;;;21.67;;
22131;SDS011;11232;51.748;19.390;2022-12-18T04:48:51;69.47;;;24.90;;
22131;SDS011;11232;51.748;19.390;2022-12-18T04:51:17;61.87;;;22.80;;
22131;SDS011;11232;51.748;19.390;2022-12-18T04:53:42;65.90;;;23.63;;
22131;SDS011;11232;51.748;19.390;2022-12-18T04:56:09;66.33;;;21.83;;
22131;SDS011;11232;51.748;19.390;2022-12-18T04:58:37;57.63;;;21.57;;
22131;SDS011;11232;51.748;19.390;2022-12-18T05:01:04;69.67;;;22.77;;
22131;SDS011;11232;51.748;19.390;2022-12-18T05:03:30;66.90;;;23.57;;
22131;SDS011;11232;51.748;19.390;2022-12-18T05:05:56;74.83;;;22.83;;
22131;SDS011;11232;51.748;19.390;2022-12-18T05:08:22;65.73;;;22.80;;
22131;SDS011;11232;51.748;19.390;2022-12-18T05:10:47;70.57;;;23.20;;
22131;SDS011;11232;51.748;19.390;2022-12-18T05:13:13;61.10;;;23.73;;
22131;SDS011;11232;51.748;19.390;2022-12-18T05:15:38;61.17;;;20.63;;
22131;SDS011;11232;51.748;19.390;2022-12-18T05:18:04;65.57;;;21.63;;
22131;SDS011;11232;51.748;19.390;2022-12-18T05:20:30;67.27;;;23.57;;
22131;SDS011;11232;51.748;19.390;2022-12-18T05:22:56;70.90;;;22.97;;
22131;SDS011;11232;51.748;19.390;2022-12-18T05:25:22;66.60;;;21.80;;
22131;SDS011;11232;51.748;19.390;2022-12-18T05:27:48;62.80;;;23.03;;
22131;SDS011;11232;51.748;19.390;2022-12-18T05:30:14;71.83;;;24.10;;
22131;SDS011;11232;51.748;19.390;2022-12-18T05:32:41;67.67;;;23.73;;
22131;SDS011;11232;51.748;19.390;2022-12-18T05:35:07;70.33;;;24.60;;
22131;SDS011;11232;51.748;19.390;2022-12-18T05:37:34;75.73;;;23.40;;
22131;SDS011;11232;51.748;19.390;2022-12-18T05:40:00;81.80;;;26.93;;
22131;SDS011;11232;51.748;19.390;2022-12-18T05:42:26;74.87;;;24.53;;
22131;SDS011;11232;51.748;19.390;2022-12-18T05:44:52;64.53;;;22.27;;
22131;SDS011;11232;51.748;19.390;2022-12-18T05:47:17;78.47;;;25.73;;
22131;SDS011;11232;51.748;19.390;2022-12-18T05:49:43;76.20;;;26.63;;
22131;SDS011;11232;51.748;19.390;2022-12-18T05:52:09;91.37;;;25.37;;
22131;SDS011;11232;51.748;19.390;2022-12-18T05:54:35;83.23;;;25.83;;
22131;SDS011;11232;51.748;19.390;2022-12-18T05:57:00;77.73;;;24.23;;
22131;SDS011;11232;51.748;19.390;2022-12-18T05:59:26;67.77;;;22.20;;
22131;SDS011;11232;51.748;19.390;2022-12-18T06:01:51;78.20;;;24.70;;
22131;SDS011;11232;51.748;19.390;2022-12-18T06:04:17;68.33;;;24.50;;
22131;SDS011;11232;51.748;19.390;2022-12-18T06:06:42;75.43;;;23.90;;
22131;SDS011;11232;51.748;19.390;2022-12-18T06:09:08;79.97;;;23.70;;
22131;SDS011;11232;51.748;19.390;2022-12-18T06:11:37;70.90;;;24.57;;
22131;SDS011;11232;51.748;19.390;2022-12-18T06:14:04;76.17;;;24.97;;
22131;SDS011;11232;51.748;19.390;2022-12-18T06:16:34;78.30;;;26.30;;
22131;SDS011;11232;51.748;19.390;2022-12-18T06:19:00;79.00;;;24.40;;
22131;SDS011;11232;51.748;19.390;2022-12-18T06:21:28;75.13;;;24.17;;
22131;SDS011;11232;51.748;19.390;2022-12-18T06:23:54;81.77;;;24.37;;
22131;SDS011;11232;51.748;19.390;2022-12-18T06:26:20;77.10;;;25.23;;
22131;SDS011;11232;51.748;19.390;2022-12-18T06:28:45;74.20;;;24.13;;
22131;SDS011;11232;51.748;19.390;2022-12-18T06:31:11;74.60;;;24.80;;
22131;SDS011;11232;51.748;19.390;2022-12-18T06:33:37;67.33;;;22.90;;
22131;SDS011;11232;51.748;19.390;2022-12-18T06:36:05;66.23;;;22.87;;
22131;SDS011;11232;51.748;19.390;2022-12-18T06:38:36;75.50;;;24.50;;
22131;SDS011;11232;51.748;19.390;2022-12-18T06:41:08;87.60;;;25.53;;
22131;SDS011;11232;51.748;19.390;2022-12-18T06:43:38;67.17;;;24.47;;
22131;SDS011;11232;51.748;19.390;2022-12-18T06:46:04;77.07;;;23.87;;
22131;SDS011;11232;51.748;19.390;2022-12-18T06:48:31;82.97;;;27.57;;
22131;SDS011;11232;51.748;19.390;2022-12-18T06:50:57;74.43;;;23.30;;
22131;SDS011;11232;51.748;19.390;2022-12-18T06:53:23;68.20;;;23.03;;
22131;SDS011;11232;51.748;19.390;2022-12-18T06:55:49;74.53;;;22.60;;
22131;SDS011;11232;51.748;19.390;2022-12-18T06:58:15;60.37;;;21.43;;
22131;SDS011;11232;51.748;19.390;2022-12-18T07:00:40;70.07;;;21.90;;
22131;SDS011;11232;51.748;19.390;2022-12-18T07:03:06;66.30;;;21.43;;
22131;SDS011;11232;51.748;19.390;2022-12-18T07:05:32;68.67;;;23.10;;
22131;SDS011;11232;51.748;19.390;2022-12-18T07:07:58;64.27;;;21.43;;
22131;SDS011;11232;51.748;19.390;2022-12-18T07:10:24;66.80;;;22.63;;
22131;SDS011;11232;51.748;19.390;2022-12-18T07:12:50;67.73;;;22.03;;
22131;SDS011;11232;51.748;19.390;2022-12-18T07:15:15;65.77;;;21.73;;
22131;SDS011;11232;51.748;19.390;2022-12-18T07:17:41;69.03;;;22.60;;
22131;SDS011;11232;51.748;19.390;2022-12-18T07:20:07;63.40;;;22.77;;
22131;SDS011;11232;51.748;19.390;2022-12-18T07:22:33;76.43;;;23.43;;
22131;SDS011;11232;51.748;19.390;2022-12-18T07:24:58;69.60;;;24.93;;
22131;SDS011;11232;51.748;19.390;2022-12-18T07:27:24;74.63;;;23.87;;
22131;SDS011;11232;51.748;19.390;2022-12-18T07:29:50;59.80;;;21.77;;
22131;SDS011;11232;51.748;19.390;2022-12-18T07:32:15;71.60;;;22.63;;
22131;SDS011;11232;51.748;19.390;2022-12-18T07:34:41;61.17;;;21.27;;
22131;SDS011;11232;51.748;19.390;2022-12-18T07:37:06;70.27;;;21.50;;
22131;SDS011;11232;51.748;19.390;2022-12-18T07:39:32;59.27;;;21.40;;
22131;SDS011;11232;51.748;19.390;2022-12-18T07:41:58;66.43;;;21.83;;
22131;SDS011;11232;51.748;19.390;2022-12-18T07:44:42;72.17;;;21.00;;
22131;SDS011;11232;51.748;19.390;2022-12-18T07:47:08;77.17;;;24.43;;
22131;SDS011;11232;51.748;19.390;2022-12-18T07:49:33;61.27;;;20.90;;
22131;SDS011;11232;51.748;19.390;2022-12-18T07:51:59;65.07;;;21.87;;
22131;SDS011;11232;51.748;19.390;2022-12-18T07:54:25;60.13;;;20.43;;
22131;SDS011;11232;51.748;19.390;2022-12-18T07:56:50;58.70;;;20.20;;
22131;SDS011;11232;51.748;19.390;2022-12-18T07:59:17;57.77;;;21.70;;
22131;SDS011;11232;51.748;19.390;2022-12-18T08:01:43;66.63;;;23.43;;
22131;SDS011;11232;51.748;19.390;2022-12-18T08:04:09;70.93;;;24.00;;
22131;SDS011;11232;51.748;19.390;2022-12-18T08:06:34;72.60;;;25.27;;
22131;SDS011;11232;51.748;19.390;2022-12-18T08:09:00;76.43;;;25.37;;
22131;SDS011;11232;51.748;19.390;2022-12-18T08:11:26;74.00;;;24.23;;
22131;SDS011;11232;51.748;19.390;2022-12-18T08:13:53;70.37;;;23.87;;
22131;SDS011;11232;51.748;19.390;2022-12-18T08:16:20;75.27;;;22.93;;
22131;SDS011;11232;51.748;19.390;2022-12-18T08:18:46;79.53;;;23.13;;
22131;SDS011;11232;51.748;19.390;2022-12-18T08:21:13;65.07;;;21.97;;
22131;SDS011;11232;51.748;19.390;2022-12-18T08:23:40;67.33;;;23.20;;
22131;SDS011;11232;51.748;19.390;2022-12-18T08:26:07;74.67;;;22.87;;
22131;SDS011;11232;51.748;19.390;2022-12-18T08:28:33;60.93;;;21.40;;
22131;SDS011;11232;51.748;19.390;2022-12-18T08:30:59;67.17;;;22.53;;
22131;SDS011;11232;51.748;19.390;2022-12-18T08:33:25;78.27;;;24.33;;
22131;SDS011;11232;51.748;19.390;2022-12-18T08:35:51;75.50;;;22.73;;
22131;SDS011;11232;51.748;19.390;2022-12-18T08:38:17;72.67;;;23.53;;
22131;SDS011;11232;51.748;19.390;2022-12-18T08:40:42;68.73;;;23.53;;
22131;SDS011;11232;51.748;19.390;2022-12-18T08:43:11;72.20;;;23.00;;
22131;SDS011;11232;51.748;19.390;2022-12-18T08:45:56;69.20;;;22.70;;
22131;SDS011;11232;51.748;19.390;2022-12-18T08:48:25;72.17;;;23.23;;
22131;SDS011;11232;51.748;19.390;2022-12-18T08:50:57;76.47;;;24.57;;
22131;SDS011;11232;51.748;19.390;2022-12-18T08:53:27;68.33;;;22.17;;
22131;SDS011;11232;51.748;19.390;2022-12-18T08:55:53;69.10;;;23.73;;
22131;SDS011;11232;51.748;19.390;2022-12-18T08:58:19;69.37;;;23.10;;
22131;SDS011;11232;51.748;19.390;2022-12-18T09:00:44;75.03;;;24.07;;
22131;SDS011;11232;51.748;19.390;2022-12-18T09:03:11;74.63;;;22.57;;
22131;SDS011;11232;51.748;19.390;2022-12-18T09:05:38;82.00;;;22.87;;
22131;SDS011;11232;51.748;19.390;2022-12-18T09:08:03;65.20;;;22.30;;
22131;SDS011;11232;51.748;19.390;2022-12-18T09:10:29;74.80;;;24.00;;
22131;SDS011;11232;51.748;19.390;2022-12-18T09:12:54;78.27;;;22.50;;
22131;SDS011;11232;51.748;19.390;2022-12-18T09:15:21;76.63;;;22.30;;
22131;SDS011;11232;51.748;19.390;2022-12-18T09:17:47;70.13;;;24.67;;
22131;SDS011;11232;51.748;19.390;2022-12-18T09:20:13;68.63;;;22.43;;
22131;SDS011;11232;51.748;19.390;2022-12-18T09:22:38;64.17;;;21.77;;
22131;SDS011;11232;51.748;19.390;2022-12-18T09:25:04;74.03;;;23.27;;
22131;SDS011;11232;51.748;19.390;2022-12-18T09:27:32;75.43;;;22.63;;
22131;SDS011;11232;51.748;19.390;2022-12-18T09:29:58;60.60;;;21.23;;
22131;SDS011;11232;51.748;19.390;2022-12-18T09:32:24;79.00;;;23.40;;
22131;SDS011;11232;51.748;19.390;2022-12-18T09:34:50;73.37;;;23.00;;
22131;SDS011;11232;51.748;19.390;2022-12-18T09:37:15;68.23;;;21.47;;
22131;SDS011;11232;51.748;19.390;2022-12-18T09:39:41;78.87;;;22.90;;
22131;SDS011;11232;51.748;19.390;2022-12-18T09:42:08;76.07;;;22.90;;
22131;SDS011;11232;51.748;19.390;2022-12-18T09:44:45;82.47;;;24.17;;
22131;SDS011;11232;51.748;19.390;2022-12-18T09:47:34;84.00;;;25.77;;
22131;SDS011;11232;51.748;19.390;2022-12-18T09:50:13;83.47;;;23.00;;
22131;SDS011;11232;51.748;19.390;2022-12-18T09:52:50;70.07;;;23.07;;
22131;SDS011;11232;51.748;19.390;2022-12-18T09:57:58;75.03;;;23.40;;
22131;SDS011;11232;51.748;19.390;2022-12-18T10:00:29;87.53;;;27.67;;
22131;SDS011;11232;51.748;19.390;2022-12-18T10:03:03;78.70;;;24.73;;
22131;SDS011;11232;51.748;19.390;2022-12-18T10:05:43;81.90;;;25.40;;
22131;SDS011;11232;51.748;19.390;2022-12-18T10:08:16;84.87;;;26.83;;
22131;SDS011;11232;51.748;19.390;2022-12-18T10:11:16;85.20;;;24.53;;
22131;SDS011;11232;51.748;19.390;2022-12-18T10:13:59;86.30;;;25.13;;
22131;SDS011;11232;51.748;19.390;2022-12-18T10:16:30;85.33;;;26.57;;
22131;SDS011;11232;51.748;19.390;2022-12-18T10:24:40;73.23;;;22.33;;
22131;SDS011;11232;51.748;19.390;2022-12-18T10:27:31;73.50;;;22.37;;
22131;SDS011;11232;51.748;19.390;2022-12-18T10:29:57;70.20;;;23.07;;
22131;SDS011;11232;51.748;19.390;2022-12-18T10:32:24;73.53;;;21.30;;
22131;SDS011;11232;51.748;19.390;2022-12-18T10:34:53;77.80;;;23.43;;
22131;SDS011;11232;51.748;19.390;2022-12-18T10:37:21;76.23;;;24.10;;
22131;SDS011;11232;51.748;19.390;2022-12-18T10:42:38;71.80;;;22.13;;
22131;SDS011;11232;51.748;19.390;2022-12-18T10:45:12;72.17;;;22.10;;
22131;SDS011;11232;51.748;19.390;2022-12-18T10:47:49;67.00;;;22.87;;
22131;SDS011;11232;51.748;19.390;2022-12-18T10:50:26;76.47;;;23.33;;
22131;SDS011;11232;51.748;19.390;2022-12-18T10:52:58;69.53;;;23.40;;
22131;SDS011;11232;51.748;19.390;2022-12-18T10:55:33;72.23;;;22.47;;
22131;SDS011;11232;51.748;19.390;2022-12-18T11:03:39;68.87;;;21.43;;
22131;SDS011;11232;51.748;19.390;2022-12-18T11:06:26;63.87;;;21.63;;
22131;SDS011;11232;51.748;19.390;2022-12-18T11:09:02;67.63;;;21.80;;
22131;SDS011;11232;51.748;19.390;2022-12-18T11:11:29;66.37;;;20.70;;
22131;SDS011;11232;51.748;19.390;2022-12-18T11:16:29;65.60;;;20.50;;
22131;SDS011;11232;51.748;19.390;2022-12-18T11:19:47;56.00;;;21.10;;
22131;SDS011;11232;51.748;19.390;2022-12-18T11:22:01;56.13;;;18.53;;
22131;SDS011;11232;51.748;19.390;2022-12-18T11:24:42;64.47;;;20.97;;
22131;SDS011;11232;51.748;19.390;2022-12-18T11:27:13;63.83;;;20.07;;
22131;SDS011;11232;51.748;19.390;2022-12-18T11:29:43;59.43;;;18.67;;
22131;SDS011;11232;51.748;19.390;2022-12-18T11:32:32;59.63;;;20.83;;
22131;SDS011;11232;51.748;19.390;2022-12-18T11:37:36;66.33;;;20.33;;
22131;SDS011;11232;51.748;19.390;2022-12-18T11:40:09;66.87;;;20.57;;
22131;SDS011;11232;51.748;19.390;2022-12-18T11:42:44;57.53;;;20.43;;
22131;SDS011;11232;51.748;19.390;2022-12-18T11:45:30;61.80;;;19.47;;
22131;SDS011;11232;51.748;19.390;2022-12-18T11:48:03;61.60;;;20.60;;
22131;SDS011;11232;51.748;19.390;2022-12-18T11:50:46;66.57;;;20.07;;
22131;SDS011;11232;51.748;19.390;2022-12-18T11:53:14;76.17;;;22.83;;
22131;SDS011;11232;51.748;19.390;2022-12-18T11:56:00;62.33;;;20.00;;
22131;SDS011;11232;51.748;19.390;2022-12-18T11:58:42;71.53;;;21.40;;
22131;SDS011;11232;51.748;19.390;2022-12-18T12:07:04;72.03;;;22.50;;
22131;SDS011;11232;51.748;19.390;2022-12-18T12:09:51;81.80;;;22.93;;
22131;SDS011;11232;51.748;19.390;2022-12-18T12:17:46;66.07;;;22.87;;
22131;SDS011;11232;51.748;19.390;2022-12-18T12:20:44;70.17;;;22.20;;
22131;SDS011;11232;51.748;19.390;2022-12-18T12:23:36;77.50;;;25.17;;
22131;SDS011;11232;51.748;19.390;2022-12-18T12:26:11;77.67;;;22.73;;
22131;SDS011;11232;51.748;19.390;2022-12-18T12:36:54;73.70;;;23.27;;
22131;SDS011;11232;51.748;19.390;2022-12-18T12:39:27;74.73;;;25.23;;
22131;SDS011;11232;51.748;19.390;2022-12-18T12:41:56;74.27;;;23.83;;
22131;SDS011;11232;51.748;19.390;2022-12-18T12:44:43;76.57;;;25.67;;
22131;SDS011;11232;51.748;19.390;2022-12-18T12:47:16;76.33;;;24.13;;
22131;SDS011;11232;51.748;19.390;2022-12-18T12:50:05;75.63;;;22.37;;
22131;SDS011;11232;51.748;19.390;2022-12-18T12:52:41;76.87;;;24.90;;
22131;SDS011;11232;51.748;19.390;2022-12-18T12:55:14;70.50;;;23.03;;
22131;SDS011;11232;51.748;19.390;2022-12-18T13:04:05;69.67;;;24.43;;
22131;SDS011;11232;51.748;19.390;2022-12-18T13:09:07;78.93;;;25.07;;
22131;SDS011;11232;51.748;19.390;2022-12-18T13:14:26;73.67;;;23.80;;
22131;SDS011;11232;51.748;19.390;2022-12-18T13:20:02;74.23;;;24.07;;
22131;SDS011;11232;51.748;19.390;2022-12-18T13:25:01;68.97;;;22.43;;
22131;SDS011;11232;51.748;19.390;2022-12-18T13:27:45;76.70;;;23.93;;
22131;SDS011;11232;51.748;19.390;2022-12-18T13:35:40;64.10;;;21.87;;
22131;SDS011;11232;51.748;19.390;2022-12-18T13:38:22;70.00;;;19.83;;
22131;SDS011;11232;51.748;19.390;2022-12-18T13:43:54;69.67;;;20.27;;
22131;SDS011;11232;51.748;19.390;2022-12-18T13:51:46;81.00;;;23.67;;
22131;SDS011;11232;51.748;19.390;2022-12-18T13:57:25;74.47;;;23.67;;
22131;SDS011;11232;51.748;19.390;2022-12-18T14:00:17;65.83;;;20.73;;
22131;SDS011;11232;51.748;19.390;2022-12-18T14:02:47;71.37;;;22.40;;
22131;SDS011;11232;51.748;19.390;2022-12-18T14:05:56;75.97;;;24.23;;
22131;SDS011;11232;51.748;19.390;2022-12-18T14:08:10;75.83;;;25.20;;
22131;SDS011;11232;51.748;19.390;2022-12-18T14:10:42;70.63;;;23.80;;
22131;SDS011;11232;51.748;19.390;2022-12-18T14:13:10;75.67;;;24.63;;
22131;SDS011;11232;51.748;19.390;2022-12-18T14:15:45;69.57;;;23.43;;
22131;SDS011;11232;51.748;19.390;2022-12-18T14:20:56;71.07;;;23.40;;
22131;SDS011;11232;51.748;19.390;2022-12-18T14:23:41;71.47;;;23.33;;
22131;SDS011;11232;51.748;19.390;2022-12-18T14:26:21;67.97;;;21.77;;
22131;SDS011;11232;51.748;19.390;2022-12-18T14:28:54;72.93;;;21.60;;
22131;SDS011;11232;51.748;19.390;2022-12-18T14:31:27;67.77;;;20.87;;
22131;SDS011;11232;51.748;19.390;2022-12-18T14:33:55;63.37;;;23.50;;
22131;SDS011;11232;51.748;19.390;2022-12-18T14:36:24;62.93;;;22.87;;
22131;SDS011;11232;51.748;19.390;2022-12-18T14:38:53;62.63;;;23.40;;
22131;SDS011;11232;51.748;19.390;2022-12-18T14:41:20;63.27;;;21.27;;
22131;SDS011;11232;51.748;19.390;2022-12-18T14:43:47;65.40;;;22.43;;
22131;SDS011;11232;51.748;19.390;2022-12-18T14:46:34;71.00;;;23.00;;
22131;SDS011;11232;51.748;19.390;2022-12-18T14:49:02;68.17;;;23.43;;
22131;SDS011;11232;51.748;19.390;2022-12-18T14:51:31;62.97;;;20.73;;
22131;SDS011;11232;51.748;19.390;2022-12-18T14:53:59;55.40;;;20.80;;
22131;SDS011;11232;51.748;19.390;2022-12-18T14:56:29;62.23;;;20.00;;
22131;SDS011;11232;51.748;19.390;2022-12-18T14:59:00;59.13;;;19.17;;
22131;SDS011;11232;51.748;19.390;2022-12-18T15:01:32;54.40;;;19.93;;
22131;SDS011;11232;51.748;19.390;2022-12-18T15:04:00;62.93;;;18.60;;
22131;SDS011;11232;51.748;19.390;2022-12-18T15:06:30;56.73;;;20.97;;
22131;SDS011;11232;51.748;19.390;2022-12-18T15:08:57;68.60;;;22.17;;
22131;SDS011;11232;51.748;19.390;2022-12-18T15:14:23;77.17;;;23.20;;
22131;SDS011;11232;51.748;19.390;2022-12-18T15:17:05;57.70;;;20.87;;
22131;SDS011;11232;51.748;19.390;2022-12-18T15:19:40;67.37;;;22.20;;
22131;SDS011;11232;51.748;19.390;2022-12-18T15:22:18;74.33;;;22.83;;
22131;SDS011;11232;51.748;19.390;2022-12-18T15:24:46;63.87;;;20.73;;
22131;SDS011;11232;51.748;19.390;2022-12-18T15:27:23;58.70;;;21.60;;
22131;SDS011;11232;51.748;19.390;2022-12-18T15:32:35;62.20;;;21.50;;
22131;SDS011;11232;51.748;19.390;2022-12-18T15:37:39;68.13;;;21.73;;
22131;SDS011;11232;51.748;19.390;2022-12-18T15:40:05;66.20;;;22.07;;
22131;SDS011;11232;51.748;19.390;2022-12-18T15:42:32;72.17;;;22.37;;
22131;SDS011;11232;51.748;19.390;2022-12-18T15:45:16;69.47;;;21.83;;
22131;SDS011;11232;51.748;19.390;2022-12-18T15:47:45;63.00;;;20.30;;
22131;SDS011;11232;51.748;19.390;2022-12-18T15:50:10;57.77;;;19.33;;
22131;SDS011;11232;51.748;19.390;2022-12-18T15:52:39;63.57;;;20.27;;
22131;SDS011;11232;51.748;19.390;2022-12-18T15:55:12;50.40;;;19.40;;
22131;SDS011;11232;51.748;19.390;2022-12-18T15:58:01;57.87;;;20.47;;
22131;SDS011;11232;51.748;19.390;2022-12-18T16:00:27;60.83;;;19.53;;
22131;SDS011;11232;51.748;19.390;2022-12-18T16:02:53;60.53;;;18.53;;
22131;SDS011;11232;51.748;19.390;2022-12-18T16:05:19;55.63;;;17.60;;
22131;SDS011;11232;51.748;19.390;2022-12-18T16:07:46;54.47;;;18.20;;
22131;SDS011;11232;51.748;19.390;2022-12-18T16:10:13;79.30;;;19.50;;
22131;SDS011;11232;51.748;19.390;2022-12-18T16:12:38;61.20;;;17.87;;
22131;SDS011;11232;51.748;19.390;2022-12-18T16:15:04;56.50;;;19.40;;
22131;SDS011;11232;51.748;19.390;2022-12-18T16:17:31;61.97;;;19.40;;
22131;SDS011;11232;51.748;19.390;2022-12-18T16:19:57;74.20;;;22.40;;
22131;SDS011;11232;51.748;19.390;2022-12-18T16:22:24;61.43;;;20.73;;